This is the latest recevied weather packets stored in our database for station/object DL7KST-13. If no packets are shown the sender has not sent any weather packets the latest 10 day(s).
| Time | Temp. | Humidity | Pressure | Rain* | Wind** | Luminosity | Snow |
|---|---|---|---|---|---|---|---|
| 1777659658 | 17.78° C | 40% | 1015.7 hPa | 0 mm | 0.45 m/s, 30° | - | - |
| 1777658454 | 20° C | 37% | 1015.6 hPa | 0 mm | 0 m/s | - | - |
| 1777657248 | 20.56° C | 34% | 1015.7 hPa | 0 mm | 0 m/s | - | - |
| 1777656043 | 21.67° C | 33% | 1015.6 hPa | 0 mm | 0 m/s | - | - |
| 1777654838 | 21.67° C | 29% | 1015.7 hPa | 0 mm | 0 m/s | - | - |
| 1777653634 | 22.22° C | 30% | 1015.9 hPa | 0 mm | 0.45 m/s, 322° | - | - |
| 1777652428 | 22.78° C | 27% | 1016.1 hPa | 0 mm | 0 m/s | - | - |
| 1777651223 | 22.78° C | 28% | 1016 hPa | 0 mm | 0 m/s | - | - |
| 1777650018 | 23.33° C | 27% | 1016.5 hPa | 0 mm | 0.45 m/s, 313° | - | - |
| 1777648813 | 22.78° C | 28% | 1016.4 hPa | 0 mm | 0.45 m/s, 19° | - | - |
| 1777647608 | 22.78° C | 29% | 1016.6 hPa | 0 mm | 0.45 m/s, 343° | - | - |
| 1777646403 | 23.33° C | 28% | 1016.8 hPa | 0 mm | 0.45 m/s, 166° | - | - |
| 1777645198 | 22.22° C | 28% | 1016.9 hPa | 0 mm | 0.45 m/s, 287° | - | - |
| 1777643994 | 22.78° C | 30% | 1017.4 hPa | 0 mm | 0.45 m/s, 40° | - | - |
| 1777642788 | 22.78° C | 29% | 1017.3 hPa | 0 mm | 0 m/s | - | - |
| 1777641583 | 21.67° C | 30% | 1017.6 hPa | 0 mm | 0.45 m/s, 297° | - | - |
| 1777640378 | 22.22° C | 29% | 1017.7 hPa | 0 mm | 0 m/s | - | - |
| 1777639173 | 22.22° C | 32% | 1018 hPa | 0 mm | 0 m/s | - | - |
| 1777637968 | 21.67° C | 32% | 1018 hPa | 0 mm | 0.45 m/s, 309° | - | - |
| 1777636771 | 21.67° C | 31% | 1018.3 hPa | 0 mm | 0.45 m/s, 314° | - | - |
| 1777636763 | 21.67° C | 31% | 1018.3 hPa | 0 mm | 0.45 m/s, 314° | - | - |
| 1777635558 | 21.11° C | 32% | 1018.4 hPa | 0 mm | 0 m/s | - | - |
| 1777634353 | 21.11° C | 29% | 1018.5 hPa | 0 mm | 0.89 m/s, 54° | - | - |
| 1777633148 | 20.56° C | 32% | 1018.8 hPa | 0 mm | 0 m/s | - | - |
| 1777631945 | 20.56° C | 30% | 1019.1 hPa | 0 mm | 0.45 m/s, 312° | - | - |
* Rain latest hour (hover to see other rain measurements)
** Current wind speed in m/s (hover to see current wind gust speed)